createdAt,value
2022-10-12T00:00:34.097Z,109.3
2022-10-12T00:01:38.368Z,102.5
2022-10-12T00:02:42.668Z,107.5
2022-10-12T00:03:47.052Z,98.1
2022-10-12T00:04:51.688Z,89.7
2022-10-12T00:05:56.532Z,105
2022-10-12T00:07:05.942Z,112.9
2022-10-12T00:08:10.275Z,122.8
2022-10-12T00:09:14.469Z,118.4
2022-10-12T00:10:18.665Z,127.5
2022-10-12T00:11:23.704Z,131
2022-10-12T00:12:29.222Z,143.8
2022-10-12T00:13:33.492Z,129.3
2022-10-12T00:14:37.800Z,129
2022-10-12T00:15:42.191Z,137.2
2022-10-12T00:16:47.438Z,131.7
2022-10-12T00:17:52.475Z,133.8
2022-10-12T00:18:56.855Z,131.6
2022-10-12T00:20:01.436Z,128.1
2022-10-12T00:21:06.419Z,128.9
2022-10-12T00:22:13.684Z,126.3
2022-10-12T00:23:18.236Z,132
2022-10-12T00:24:22.688Z,127.7
2022-10-12T00:25:28.119Z,127.5
2022-10-12T00:26:32.857Z,114.2
2022-10-12T00:28:40.723Z,108.6
2022-10-12T00:29:44.839Z,113.3
2022-10-12T00:30:49.064Z,108.3
2022-10-12T00:31:53.235Z,105.9
2022-10-12T00:32:57.879Z,98.3
2022-10-12T00:34:02.523Z,100.9
2022-10-12T00:35:06.752Z,93.4
2022-10-12T00:36:11.452Z,93.2
2022-10-12T00:37:20.860Z,89.5
2022-10-12T00:38:25.413Z,94.2
2022-10-12T00:39:29.743Z,93.4
2022-10-12T00:40:34.316Z,89.3
2022-10-12T00:41:39.095Z,89.9
2022-10-12T00:42:43.275Z,87.5
2022-10-12T00:43:48.167Z,86.8
2022-10-12T00:44:52.385Z,81.2
2022-10-12T00:45:56.782Z,86.3
2022-10-12T00:47:01.329Z,85.3
2022-10-12T00:48:08.564Z,82.1
2022-10-12T00:49:12.982Z,80.2
2022-10-12T00:50:20.059Z,79.3
2022-10-12T00:51:24.362Z,77.8
2022-10-12T00:52:28.682Z,85.6
2022-10-12T00:53:33.110Z,79.7
2022-10-12T00:54:42.382Z,76.2
2022-10-12T00:55:46.976Z,76.4
2022-10-12T00:56:52.614Z,72.8
2022-10-12T00:57:56.955Z,74.6
2022-10-12T00:59:01.254Z,76.3
2022-10-12T01:00:05.791Z,73.8
2022-10-12T01:01:10.530Z,70.2
2022-10-12T01:02:14.679Z,71.9
2022-10-12T01:03:18.826Z,63.7
2022-10-12T01:04:23.127Z,62.9
2022-10-12T01:05:27.467Z,63
2022-10-12T01:06:31.808Z,65.1
2022-10-12T01:07:36.435Z,58.8
2022-10-12T01:08:40.655Z,61.2
2022-10-12T01:09:44.891Z,59.9
2022-10-12T01:10:49.467Z,61.4
2022-10-12T01:11:53.894Z,58.7
2022-10-12T01:12:58.873Z,62.7
2022-10-12T01:14:03.394Z,60.9
2022-10-12T01:15:07.975Z,61.7
2022-10-12T01:16:12.451Z,59.8
2022-10-12T01:17:16.810Z,58.5
2022-10-12T01:18:31.418Z,61.5
2022-10-12T01:19:43.614Z,58
2022-10-12T01:20:55.914Z,57.7
2022-10-12T01:22:05.206Z,60.5
2022-10-12T01:23:12.518Z,61.2
2022-10-12T01:24:27.050Z,57.3
2022-10-12T01:25:34.567Z,59.7
2022-10-12T01:26:49.160Z,57.8
2022-10-12T01:28:03.873Z,60.2
2022-10-12T01:29:18.518Z,57.2
2022-10-12T01:30:31.830Z,64
2022-10-12T01:31:36.230Z,60.3
2022-10-12T01:32:48.538Z,57.9
2022-10-12T01:34:00.758Z,56.5
2022-10-12T01:35:10.855Z,57.6
2022-10-12T01:36:18.102Z,58.5
2022-10-12T01:37:32.486Z,60.6
2022-10-12T01:38:47.419Z,58
2022-10-12T01:39:58.007Z,61.1
2022-10-12T01:41:02.568Z,59
2022-10-12T01:42:15.002Z,57.3
2022-10-12T01:43:25.460Z,57
2022-10-12T01:44:37.043Z,54.2
2022-10-12T01:45:39.275Z,56.5
2022-10-12T01:46:44.170Z,61.2
2022-10-12T01:47:48.640Z,55.5
2022-10-12T01:48:53.642Z,58
2022-10-12T01:49:58.336Z,56.8
2022-10-12T01:51:02.630Z,55.5
2022-10-12T01:52:06.990Z,58.9
2022-10-12T01:53:16.470Z,59.6
2022-10-12T01:54:25.746Z,58.3
2022-10-12T01:55:38.156Z,56.7
2022-10-12T01:56:47.558Z,59.7
2022-10-12T01:57:57.034Z,54.7
2022-10-12T01:59:06.512Z,58.3
2022-10-12T02:00:20.974Z,55.8
2022-10-12T02:01:25.488Z,56.5
2022-10-12T02:02:32.586Z,56.5
2022-10-12T02:03:39.550Z,60.7
2022-10-12T02:04:49.026Z,64.5
2022-10-12T02:05:53.306Z,64.4
2022-10-12T02:07:02.735Z,59.5
2022-10-12T02:08:07.363Z,64.9
2022-10-12T02:09:22.025Z,61
2022-10-12T02:10:29.595Z,64
2022-10-12T02:11:34.071Z,59.6
2022-10-12T02:12:38.706Z,63.8
2022-10-12T02:13:43.641Z,62.8
2022-10-12T02:14:53.117Z,62.1
2022-10-12T02:15:57.650Z,59.7
2022-10-12T02:17:02.210Z,62.9
2022-10-12T02:18:06.422Z,59.3
2022-10-12T02:19:11.077Z,61.1
2022-10-12T02:20:15.390Z,58.7
2022-10-12T02:21:19.646Z,58.9
2022-10-12T02:22:28.934Z,60.1
2022-10-12T02:23:33.318Z,60.5
2022-10-12T02:24:37.854Z,59.1
2022-10-12T02:25:42.440Z,60
2022-10-12T02:26:47.410Z,57.7
2022-10-12T02:27:52.134Z,57.2
2022-10-12T02:28:56.454Z,60.2
2022-10-12T02:30:00.725Z,57.9
2022-10-12T02:31:05.647Z,59.4
2022-10-12T02:32:18.057Z,53.2
2022-10-12T02:33:25.002Z,57.7
2022-10-12T02:34:29.247Z,59.2
2022-10-12T02:36:50.195Z,57.5
2022-10-12T02:38:02.550Z,59.5
2022-10-12T02:39:12.570Z,54.7
2022-10-12T02:41:35.666Z,56.1
2022-10-12T02:43:08.601Z,53.2
2022-10-12T02:43:55.562Z,60.6
2022-10-12T02:45:02.832Z,57.8
2022-10-12T02:46:07.458Z,57.3
2022-10-12T02:47:11.793Z,60.7
2022-10-12T02:48:16.724Z,58.9
2022-10-12T02:49:21.026Z,55
2022-10-12T02:50:25.742Z,58.5
2022-10-12T02:51:30.083Z,58.1
2022-10-12T02:52:34.682Z,54.8
2022-10-12T02:53:39.034Z,56
2022-10-12T02:54:43.574Z,58.8
2022-10-12T02:55:48.595Z,57.2
2022-10-12T02:56:53.094Z,56.3
2022-10-12T02:57:57.709Z,59.5
2022-10-12T02:59:02.336Z,58
2022-10-12T03:00:07.019Z,57.9
2022-10-12T03:01:12.267Z,65.3
2022-10-12T03:02:19.398Z,75.1
2022-10-12T03:03:23.682Z,72
2022-10-12T03:04:28.616Z,77.1
2022-10-12T03:05:33.114Z,74.9
2022-10-12T03:06:37.285Z,76.6
2022-10-12T03:07:41.694Z,73.2
2022-10-12T03:08:46.010Z,78.1
2022-10-12T03:09:50.314Z,77.8
2022-10-12T03:10:54.711Z,85.2
2022-10-12T03:12:02.410Z,89.8
2022-10-12T03:14:10.526Z,94.8
2022-10-12T03:16:18.339Z,100.5
2022-10-12T03:17:22.959Z,107.5
2022-10-12T03:18:27.661Z,112.7
2022-10-12T03:19:32.118Z,114
2022-10-12T03:20:36.491Z,116.5
2022-10-12T03:21:41.032Z,112.1
2022-10-12T03:22:46.145Z,115.2
2022-10-12T03:23:51.573Z,107.7
2022-10-12T03:24:55.916Z,105.1
2022-10-12T03:26:00.324Z,108.1
2022-10-12T03:27:05.216Z,104
2022-10-12T03:28:09.618Z,103.9
2022-10-12T03:29:13.908Z,106.9
2022-10-12T03:30:18.624Z,106.2
2022-10-12T03:31:23.036Z,109.8
2022-10-12T03:32:27.440Z,100.9
2022-10-12T03:33:32.415Z,100.9
2022-10-12T03:34:36.687Z,94
2022-10-12T03:35:41.429Z,90.6
2022-10-12T03:36:46.018Z,86.3
2022-10-12T03:37:50.436Z,86.5
2022-10-12T03:38:54.879Z,82.7
2022-10-12T03:39:59.204Z,75.9
2022-10-12T03:41:06.674Z,74.7
2022-10-12T03:42:07.912Z,70.7
2022-10-12T03:43:12.172Z,72.9
2022-10-12T03:44:16.560Z,75.8
2022-10-12T03:45:21.587Z,72.7
2022-10-12T03:46:26.083Z,70.7
2022-10-12T03:47:30.539Z,68.6
2022-10-12T03:48:35.236Z,69.4
2022-10-12T03:49:39.603Z,82.3
2022-10-12T03:50:44.109Z,76.7
2022-10-12T03:51:48.675Z,75.6
2022-10-12T03:52:53.656Z,77.1
2022-10-12T03:53:58.264Z,77.2
2022-10-12T03:55:02.731Z,75.5
2022-10-12T03:56:07.232Z,79.4
2022-10-12T03:57:11.543Z,70.1
2022-10-12T03:58:16.647Z,71.2
2022-10-12T03:59:21.283Z,71.5
2022-10-12T04:00:25.850Z,74.4
2022-10-12T04:01:30.642Z,68.5
2022-10-12T04:02:34.868Z,65.3
2022-10-12T04:03:39.600Z,66
2022-10-12T04:04:43.937Z,62.9
2022-10-12T04:05:48.384Z,64.2
2022-10-12T04:06:52.864Z,67
2022-10-12T04:07:57.336Z,65.4
2022-10-12T04:09:02.075Z,68.6
2022-10-12T04:10:06.958Z,63.1
2022-10-12T04:11:11.224Z,70.9
2022-10-12T04:12:15.572Z,71.3
2022-10-12T04:13:19.821Z,68.5
2022-10-12T04:14:24.045Z,71.1
2022-10-12T04:15:29.627Z,65.8
2022-10-12T04:16:33.892Z,68.5
2022-10-12T04:17:38.382Z,66.5
2022-10-12T04:18:42.491Z,70.7
2022-10-12T04:19:48.183Z,72.9
2022-10-12T04:20:52.812Z,67.8
2022-10-12T04:21:57.269Z,72.5
2022-10-12T04:23:01.525Z,72.1
2022-10-12T04:24:05.815Z,74.4
2022-10-12T04:25:10.252Z,73.1
2022-10-12T04:26:14.571Z,75.8
2022-10-12T04:27:19.216Z,71.7
2022-10-12T04:28:24.062Z,72.9
2022-10-12T04:29:28.523Z,68.5
2022-10-12T04:30:33.115Z,72.3
2022-10-12T04:31:37.402Z,71
2022-10-12T04:32:41.815Z,66.9
2022-10-12T04:33:46.111Z,70.4
2022-10-12T04:34:50.495Z,67.4
2022-10-12T04:35:55.530Z,62.3
2022-10-12T04:37:01.459Z,67.8
2022-10-12T04:38:06.024Z,67.8
2022-10-12T04:39:10.323Z,62.7
2022-10-12T04:40:15.076Z,63.1
2022-10-12T04:41:19.613Z,62.5
2022-10-12T04:42:24.095Z,67.6
2022-10-12T04:43:28.843Z,57.8
2022-10-12T04:44:33.371Z,58.6
2022-10-12T04:45:38.179Z,58.4
2022-10-12T04:47:46.259Z,61.1
2022-10-12T04:48:51.103Z,55.6
2022-10-12T04:49:55.472Z,59
2022-10-12T04:50:59.943Z,58.8
2022-10-12T04:52:04.503Z,62.3
2022-10-12T04:53:08.915Z,64.3
2022-10-12T04:54:13.240Z,58
2022-10-12T04:55:17.537Z,58.5
2022-10-12T04:56:21.905Z,61.7
2022-10-12T04:57:26.558Z,59.2
2022-10-12T04:58:31.162Z,61.5
2022-10-12T04:59:35.421Z,59.6
2022-10-12T05:00:39.738Z,60
2022-10-12T05:01:44.210Z,58.6
2022-10-12T05:02:48.549Z,61.3
2022-10-12T05:03:52.997Z,63.7
2022-10-12T05:05:01.857Z,63.1
2022-10-12T05:06:06.445Z,65.3
2022-10-12T05:07:10.775Z,62.3
2022-10-12T05:08:15.173Z,61.7
2022-10-12T05:09:19.425Z,63.7
2022-10-12T05:10:23.753Z,56.6
2022-10-12T05:11:28.854Z,63.6
2022-10-12T05:12:33.353Z,64.1
2022-10-12T05:13:37.791Z,63.6
2022-10-12T05:14:42.041Z,63.6
2022-10-12T05:15:46.408Z,71.9
2022-10-12T05:16:50.994Z,65.4
2022-10-12T05:17:55.891Z,68.5
2022-10-12T05:19:00.169Z,63.8
2022-10-12T05:20:04.497Z,69.3
2022-10-12T05:21:09.301Z,65.1
2022-10-12T05:22:13.733Z,64.2
2022-10-12T05:23:20.437Z,68
2022-10-12T05:24:25.209Z,66
2022-10-12T05:25:30.577Z,57.8
2022-10-12T05:26:34.989Z,63.5
2022-10-12T05:27:39.594Z,63.9
2022-10-12T05:28:43.743Z,64.4
2022-10-12T05:29:48.390Z,66.2
2022-10-12T05:30:54.318Z,58.6
2022-10-12T05:31:58.581Z,57.2
2022-10-12T05:33:02.920Z,57
2022-10-12T05:34:07.281Z,54.5
2022-10-12T05:35:11.553Z,56
2022-10-12T05:36:15.947Z,56
2022-10-12T05:37:20.067Z,56
2022-10-12T05:38:24.673Z,52.5
2022-10-12T05:39:29.357Z,52.4
2022-10-12T05:40:33.794Z,49.7
2022-10-12T05:41:38.169Z,49.4
2022-10-12T05:42:42.473Z,48.9
2022-10-12T05:43:46.673Z,50.1
2022-10-12T05:44:51.049Z,49.3
2022-10-12T05:45:55.462Z,46.5
2022-10-12T05:46:59.930Z,49.9
2022-10-12T05:48:04.302Z,47.4
2022-10-12T05:49:09.348Z,49.5
2022-10-12T05:50:13.600Z,46.6
2022-10-12T05:51:17.871Z,51.6
2022-10-12T05:52:22.099Z,46.5
2022-10-12T05:53:26.649Z,47.9
2022-10-12T05:54:30.927Z,51.2
2022-10-12T05:55:35.483Z,49.5
2022-10-12T05:56:39.715Z,49.7
2022-10-12T05:57:47.337Z,48.7
2022-10-12T05:58:49.091Z,46.7
2022-10-12T05:59:54.015Z,50.4
2022-10-12T06:00:58.239Z,50.1
2022-10-12T06:02:08.342Z,49.4
2022-10-12T06:03:18.399Z,50.9
2022-10-12T06:04:20.143Z,51.9
2022-10-12T06:05:24.452Z,49.3
2022-10-12T06:06:28.793Z,50.4
2022-10-12T06:07:33.067Z,50.1
2022-10-12T06:08:37.259Z,55.6
2022-10-12T06:09:41.787Z,53.9
2022-10-12T06:10:46.090Z,56
2022-10-12T06:11:51.035Z,57.8
2022-10-12T06:12:56.412Z,57.8
2022-10-12T06:14:00.864Z,61.1
2022-10-12T06:15:05.126Z,64.5
2022-10-12T06:16:10.068Z,64.2
2022-10-12T06:17:14.480Z,66
2022-10-12T06:18:19.035Z,61.3
2022-10-12T06:19:23.326Z,59.4
2022-10-12T06:20:27.985Z,68.5
2022-10-12T06:21:33.814Z,66.3
2022-10-12T06:22:38.014Z,66.9
2022-10-12T06:23:42.157Z,72.5
2022-10-12T06:24:46.476Z,70.3
2022-10-12T06:25:50.722Z,68.2
2022-10-12T06:26:55.023Z,72.3
2022-10-12T06:27:59.443Z,75.3
2022-10-12T06:29:03.643Z,80.4
2022-10-12T06:30:11.651Z,72.3
2022-10-12T06:31:15.942Z,62.3
2022-10-12T06:32:24.135Z,57.7
2022-10-12T06:33:30.011Z,57.9
2022-10-12T06:34:34.462Z,54.8
2022-10-12T06:35:38.864Z,55.1
2022-10-12T06:36:43.308Z,56.3
2022-10-12T06:37:50.215Z,53.7
2022-10-12T06:38:52.233Z,52.4
2022-10-12T06:41:00.418Z,53.1
2022-10-12T06:42:04.783Z,55.7
2022-10-12T06:43:09.147Z,58.7
2022-10-12T06:44:13.391Z,54.5
2022-10-12T06:45:17.659Z,52.9
2022-10-12T06:46:22.030Z,52.3
2022-10-12T06:47:26.647Z,57.9
2022-10-12T06:48:30.906Z,54.1
2022-10-12T06:49:35.159Z,52.3
2022-10-12T06:50:40.880Z,58.9
2022-10-12T06:51:45.136Z,60.6
2022-10-12T06:52:50.086Z,59.2
2022-10-12T06:53:54.345Z,53.9
2022-10-12T06:54:58.702Z,54.9
2022-10-12T06:56:03.023Z,56.2
2022-10-12T06:57:07.465Z,57.9
2022-10-12T06:58:11.707Z,56.6
2022-10-12T06:59:16.327Z,61.4
2022-10-12T07:00:21.102Z,62.3
2022-10-12T07:01:25.689Z,56.5
2022-10-12T07:02:30.135Z,59.6
2022-10-12T07:03:34.482Z,62.4
2022-10-12T07:04:39.459Z,62.4
2022-10-12T07:05:43.764Z,64.4
2022-10-12T07:06:48.774Z,70
2022-10-12T07:07:53.106Z,69.3
2022-10-12T07:08:57.655Z,69
2022-10-12T07:10:02.022Z,66.8
2022-10-12T07:12:09.879Z,66.3
2022-10-12T07:13:14.054Z,69.8
2022-10-12T07:14:18.335Z,69.2
2022-10-12T07:15:22.397Z,69.2
2022-10-12T07:16:26.707Z,69.2
2022-10-12T07:17:31.039Z,69.2
2022-10-12T07:18:35.262Z,69.2
2022-10-12T07:19:39.441Z,69.2
2022-10-12T07:20:43.727Z,69.2
2022-10-12T07:21:48.009Z,69.2
2022-10-12T07:22:52.169Z,69.2
2022-10-12T07:23:56.437Z,69.2
2022-10-12T07:25:01.275Z,69.2
2022-10-12T07:26:05.765Z,69.2
2022-10-12T07:27:10.097Z,69.2
2022-10-12T07:28:14.389Z,69.2
2022-10-12T07:29:18.708Z,71.7
2022-10-12T07:30:22.935Z,73
2022-10-12T07:31:27.353Z,74.4
2022-10-12T07:32:31.984Z,73.9
2022-10-12T07:33:36.501Z,79.5
2022-10-12T07:34:41.072Z,77.5
2022-10-12T07:36:10.429Z,80.8
2022-10-12T07:36:59.345Z,76.3
2022-10-12T07:39:03.552Z,80.5
2022-10-12T07:40:07.876Z,82.9
2022-10-12T07:41:12.216Z,80.2
2022-10-12T07:42:19.212Z,80
2022-10-12T07:43:20.880Z,77.6
2022-10-12T07:44:25.386Z,82.7
2022-10-12T07:45:29.807Z,79.1
2022-10-12T07:46:34.372Z,77.8
2022-10-12T07:48:47.418Z,79.6
2022-10-12T07:49:47.818Z,81.1
2022-10-12T07:50:52.106Z,77.4
2022-10-12T07:51:56.549Z,79
2022-10-12T07:53:01.068Z,72.7
2022-10-12T07:54:05.217Z,75.8
2022-10-12T07:55:10.001Z,80.9
2022-10-12T07:56:14.472Z,75.2
2022-10-12T07:57:19.060Z,75.5
2022-10-12T07:58:23.564Z,75.1
2022-10-12T07:59:27.904Z,74.1
2022-10-12T08:00:32.220Z,75.5
2022-10-12T08:01:37.216Z,74.6
2022-10-12T08:02:41.508Z,71.4
2022-10-12T08:03:45.812Z,72.8
2022-10-12T08:04:50.124Z,70.8
2022-10-12T08:05:54.416Z,73.8
2022-10-12T08:06:58.872Z,71.9
2022-10-12T08:08:03.424Z,70.9
2022-10-12T08:09:10.997Z,67
2022-10-12T08:10:15.349Z,67.4
2022-10-12T08:11:19.586Z,70.6
2022-10-12T08:12:27.012Z,67.3
2022-10-12T08:13:32.053Z,71
2022-10-12T08:14:37.161Z,66
2022-10-12T08:15:42.780Z,64.7
2022-10-12T08:16:50.853Z,67.6
2022-10-12T08:17:55.261Z,69.5
2022-10-12T08:18:59.681Z,66.7
2022-10-12T08:20:03.956Z,71.8
2022-10-12T08:21:09.014Z,66.9
2022-10-12T08:22:14.224Z,63.7
2022-10-12T08:23:18.735Z,66.8
2022-10-12T08:24:23.103Z,70.3
2022-10-12T08:25:27.549Z,65.1
2022-10-12T08:26:31.893Z,61.4
2022-10-12T08:27:37.116Z,62.3
2022-10-12T08:28:41.358Z,62.7
2022-10-12T08:29:45.612Z,66.3
2022-10-12T08:30:50.083Z,62.2
2022-10-12T08:31:54.460Z,62
2022-10-12T08:32:58.904Z,58
2022-10-12T08:34:03.161Z,53
2022-10-12T08:35:07.697Z,55.9
2022-10-12T08:36:11.872Z,62.6
2022-10-12T08:37:16.168Z,56.9
2022-10-12T08:38:20.444Z,51
2022-10-12T08:39:25.396Z,52.4
2022-10-12T08:40:29.831Z,49.9
2022-10-12T08:41:34.452Z,49.9
2022-10-12T08:42:43.928Z,47.8
2022-10-12T08:43:51.237Z,44.1
2022-10-12T08:45:03.329Z,46.8
2022-10-12T08:46:12.964Z,44.6
2022-10-12T08:47:17.352Z,48.8
2022-10-12T08:48:26.743Z,46.1
2022-10-12T08:49:31.220Z,49.5
2022-10-12T08:50:35.476Z,49.7
2022-10-12T08:51:42.724Z,42.4
2022-10-12T08:52:52.900Z,44.4
2022-10-12T08:56:40.952Z,48.6
2022-10-12T08:57:47.640Z,46
2022-10-12T08:58:49.005Z,45.3
2022-10-12T08:59:53.067Z,44.8
2022-10-12T09:00:57.020Z,44.2
2022-10-12T09:15:22.834Z,30.5
2022-10-12T09:18:19.359Z,31
2022-10-12T09:19:31.639Z,30.6
2022-10-12T09:20:35.912Z,33
2022-10-12T09:21:43.032Z,30.8
2022-10-12T09:23:12.174Z,30.5
2022-10-12T09:25:46.156Z,32
2022-10-12T09:26:50.340Z,31.8
2022-10-12T09:27:54.456Z,30.8
2022-10-12T09:28:58.673Z,31.9
2022-10-12T09:30:02.629Z,31.2
2022-10-12T09:31:07.264Z,28.6
2022-10-12T09:32:16.574Z,28.6
2022-10-12T09:33:20.755Z,29.6
2022-10-12T09:34:28.004Z,29.3
2022-10-12T09:35:32.038Z,30.1
2022-10-12T09:36:36.187Z,28.5
2022-10-12T09:37:40.395Z,28.3
2022-10-12T09:38:44.491Z,27.6
2022-10-12T09:39:48.756Z,29.3
2022-10-12T09:40:53.184Z,27.6
2022-10-12T09:41:57.824Z,26.7
2022-10-12T09:43:01.888Z,25
2022-10-12T09:44:06.026Z,24.9
2022-10-12T09:45:18.643Z,26.1
2022-10-12T09:46:22.742Z,25.3
2022-10-12T09:47:35.057Z,26.9
2022-10-12T09:48:47.894Z,27.3
2022-10-12T09:49:56.471Z,23.3
2022-10-12T09:52:14.059Z,21.6
2022-10-12T09:53:18.264Z,19.6
2022-10-12T09:54:46.525Z,19.4
2022-10-12T09:55:53.736Z,18.3
2022-10-12T09:57:06.111Z,16.8
2022-10-12T09:58:10.116Z,18.9
2022-10-12T09:59:14.308Z,19.5
2022-10-12T10:00:23.621Z,18.7
2022-10-12T10:01:30.875Z,20.3
2022-10-12T10:02:59.573Z,19
2022-10-12T10:04:44.738Z,0
2022-10-12T10:05:48.938Z,19.6
2022-10-12T10:07:48.207Z,20.6
2022-10-12T10:08:52.785Z,20.3
2022-10-12T10:09:56.843Z,20.3
2022-10-12T10:11:09.294Z,20.7
2022-10-12T10:12:13.898Z,20.4
2022-10-12T10:13:26.718Z,17.1
2022-10-12T10:14:31.147Z,20.9
2022-10-12T10:15:35.719Z,18.9
2022-10-12T10:16:40.460Z,20.5
2022-10-12T10:17:47.343Z,19.8
2022-10-12T10:18:51.507Z,17
2022-10-12T10:19:55.878Z,21.1
2022-10-12T10:21:00.374Z,18.5
2022-10-12T10:22:04.808Z,15.5
2022-10-12T10:23:09.062Z,18.2
2022-10-12T10:24:18.634Z,17.7
2022-10-12T10:25:25.810Z,17.6
2022-10-12T10:26:30.279Z,12.5
2022-10-12T10:27:45.291Z,10.8
2022-10-12T10:28:50.250Z,14.1
2022-10-12T10:30:17.406Z,13.1
2022-10-12T10:31:15.851Z,13.3
2022-10-12T10:32:20.499Z,12.2
2022-10-12T10:33:24.868Z,11.2
2022-10-12T10:34:29.547Z,11.7
2022-10-12T10:35:34.100Z,10.5
2022-10-12T10:36:38.807Z,10.9
2022-10-12T10:37:48.395Z,14.6
2022-10-12T10:38:53.137Z,10.1
2022-10-12T10:40:00.211Z,11.9
2022-10-12T10:41:04.994Z,11.3
2022-10-12T10:42:09.546Z,14.2
2022-10-12T10:43:16.699Z,10.7
2022-10-12T10:44:26.173Z,10.4
2022-10-12T10:45:30.379Z,11.1
2022-10-12T10:46:45.494Z,13.9
2022-10-12T10:47:49.948Z,11
2022-10-12T10:48:54.518Z,10.7
2022-10-12T10:49:58.916Z,11.3
2022-10-12T10:51:03.498Z,11.4
2022-10-12T10:52:07.871Z,11.9
2022-10-12T10:53:20.759Z,11.4
2022-10-12T10:54:25.614Z,11.8
2022-10-12T10:55:29.910Z,10.8
2022-10-12T10:56:39.182Z,10.8
2022-10-12T10:57:43.390Z,14.1
2022-10-12T10:58:53.474Z,13.3
2022-10-12T10:59:59.849Z,11
2022-10-12T11:01:05.304Z,10.2
2022-10-12T11:02:16.057Z,10.9
2022-10-12T11:03:31.086Z,11
2022-10-12T11:04:35.242Z,11.7
2022-10-12T11:05:39.922Z,11.5
2022-10-12T11:06:44.558Z,11.3
2022-10-12T11:07:48.902Z,11.1
2022-10-12T11:08:53.651Z,11.8
2022-10-12T11:10:03.425Z,14.2
2022-10-12T11:11:10.990Z,11.5
2022-10-12T11:12:15.650Z,12.6
2022-10-12T11:13:20.346Z,12.1
2022-10-12T11:14:25.176Z,10.6
2022-10-12T11:15:29.578Z,10.9
2022-10-12T11:16:34.292Z,11.4
2022-10-12T11:17:46.846Z,10.7
2022-10-12T11:18:51.504Z,12.2
2022-10-12T11:19:58.443Z,11.9
2022-10-12T11:21:12.982Z,12.6
2022-10-12T11:22:22.434Z,12.1
2022-10-12T11:23:32.780Z,10.7
2022-10-12T11:24:47.616Z,10.4
2022-10-12T11:26:02.691Z,10.4
2022-10-12T11:27:12.750Z,11
2022-10-12T11:28:27.227Z,13.1
2022-10-12T11:29:31.817Z,11.8
2022-10-12T11:30:36.459Z,14
2022-10-12T11:31:41.159Z,11.3
2022-10-12T11:32:50.802Z,12.7
2022-10-12T11:33:55.346Z,11.2
2022-10-12T11:34:59.984Z,11.1
2022-10-12T11:36:05.029Z,11.2
2022-10-12T11:37:19.457Z,11.9
2022-10-12T11:38:19.602Z,10.3
2022-10-12T11:39:29.063Z,9.1
2022-10-12T11:40:55.957Z,12.5
2022-10-12T11:41:37.796Z,10.3
2022-10-12T11:42:44.880Z,13.4
2022-10-12T11:43:49.554Z,12.6
2022-10-12T11:44:57.230Z,12.1
2022-10-12T11:46:01.714Z,11.7
2022-10-12T11:47:06.186Z,12.8
2022-10-12T11:48:16.036Z,11.1
2022-10-12T11:49:23.543Z,8.5
2022-10-12T11:50:33.274Z,8.8
2022-10-12T11:51:40.982Z,10.1
2022-10-12T11:52:49.594Z,11.2
2022-10-12T11:53:54.814Z,10.7
2022-10-12T11:55:08.731Z,11.5
2022-10-12T11:56:23.489Z,11.3
2022-10-12T11:57:33.682Z,10.1
2022-10-12T11:58:56.299Z,12.4
2022-10-12T11:59:42.578Z,13
2022-10-12T12:00:54.826Z,10.6
2022-10-12T12:02:07.165Z,10.1
2022-10-12T12:03:16.962Z,10.8
2022-10-12T12:05:28.521Z,10.5
2022-10-12T12:06:33.050Z,9.9
2022-10-12T12:07:40.586Z,11
2022-10-12T12:08:50.430Z,10.1
2022-10-12T12:10:02.698Z,10.1
2022-10-12T12:11:17.360Z,9.1
2022-10-12T12:12:24.503Z,14.4
2022-10-12T12:13:29.321Z,10.1
2022-10-12T12:14:34.061Z,10.3
2022-10-12T12:15:47.022Z,12.5
2022-10-12T12:16:51.896Z,11
2022-10-12T12:18:06.859Z,7.7
2022-10-12T12:19:19.194Z,11.2
2022-10-12T12:20:34.193Z,9.5
2022-10-12T12:21:43.713Z,8.5
2022-10-12T12:22:58.346Z,10.5
2022-10-12T12:24:03.268Z,10.3
2022-10-12T12:25:07.631Z,9.1
2022-10-12T12:26:16.412Z,9.1
2022-10-12T12:27:16.687Z,11.5
2022-10-12T12:28:21.220Z,8.8
2022-10-12T12:29:25.554Z,9
2022-10-12T12:30:30.267Z,11.4
2022-10-12T12:31:37.201Z,11.4
2022-10-12T12:32:41.643Z,9.9
2022-10-12T12:33:51.772Z,9.7
2022-10-12T12:35:01.619Z,10.3
2022-10-12T12:36:06.097Z,9.2
2022-10-12T12:37:10.576Z,9.3
2022-10-12T12:38:15.049Z,9.4
2022-10-12T12:39:19.792Z,8.6
2022-10-12T12:40:27.297Z,8.2
2022-10-12T12:41:31.904Z,10
2022-10-12T12:42:46.574Z,9.5
2022-10-12T12:43:51.172Z,8.5
2022-10-12T12:44:55.569Z,9.5
2022-10-12T12:46:00.233Z,10.4
2022-10-12T12:47:26.375Z,9.4
2022-10-12T12:48:12.029Z,8.4
2022-10-12T12:49:16.745Z,8.8
2022-10-12T12:50:23.833Z,10.1
2022-10-12T12:51:31.084Z,8.8
2022-10-12T12:52:38.442Z,9.8
2022-10-12T12:53:42.560Z,9.1
2022-10-12T12:54:52.216Z,8.8
2022-10-12T12:56:02.519Z,7.8
2022-10-12T12:57:12.301Z,7.9
2022-10-12T12:58:24.521Z,9.2
2022-10-12T12:59:39.429Z,10.2
2022-10-12T13:00:54.003Z,8.7
2022-10-12T13:02:08.840Z,9.3
2022-10-12T13:03:23.474Z,11.1
2022-10-12T13:04:38.141Z,9.4
2022-10-12T13:05:53.209Z,26.3
2022-10-12T13:07:07.702Z,14.9
2022-10-12T13:08:22.585Z,8.8
2022-10-12T13:09:27.302Z,10.7
2022-10-12T13:10:37.011Z,9
2022-10-12T13:11:49.005Z,8.8
2022-10-12T13:13:04.058Z,8.1
2022-10-12T13:14:16.370Z,9.1
2022-10-12T13:15:25.862Z,8.2
2022-10-12T13:17:23.827Z,7.5
2022-10-12T13:17:42.716Z,10.8
2022-10-12T13:18:52.215Z,7.6
2022-10-12T13:19:56.645Z,9.8
2022-10-12T13:21:11.942Z,10
2022-10-12T13:22:16.873Z,10.1
2022-10-12T13:23:22.153Z,9.3
2022-10-12T13:24:26.724Z,10.1
2022-10-12T13:25:41.853Z,9.5
2022-10-12T13:26:54.411Z,14
2022-10-12T13:27:59.064Z,11.3
2022-10-12T13:29:03.673Z,9.8
2022-10-12T13:30:08.654Z,8.9
2022-10-12T13:31:15.769Z,9.2
2022-10-12T13:32:26.115Z,11.8
2022-10-12T13:33:35.605Z,9
2022-10-12T13:34:46.265Z,9.8
2022-10-12T13:35:50.512Z,10
2022-10-12T13:36:55.211Z,10.1
2022-10-12T13:38:00.161Z,8.7
2022-10-12T13:39:12.245Z,10.4
2022-10-12T13:40:17.062Z,10.4
2022-10-12T13:41:29.789Z,10.6
2022-10-12T13:42:34.562Z,18.3
2022-10-12T13:43:38.917Z,23.3
2022-10-12T13:44:46.477Z,27.8
2022-10-12T13:45:51.810Z,16.9
2022-10-12T13:46:56.830Z,13.6
2022-10-12T13:48:01.434Z,14.5
2022-10-12T13:49:06.262Z,15
2022-10-12T13:50:16.512Z,11.6
2022-10-12T13:51:21.393Z,11.4
2022-10-12T13:52:31.044Z,10.7
2022-10-12T13:53:30.669Z,10.1
2022-10-12T13:54:38.223Z,11.9
2022-10-12T13:55:45.287Z,9
2022-10-12T13:56:49.929Z,10.1
2022-10-12T13:58:00.100Z,11.8
2022-10-12T13:59:06.700Z,10.7
2022-10-12T14:00:12.533Z,10.2
2022-10-12T14:01:16.779Z,11.2
2022-10-12T14:02:21.075Z,8.6
2022-10-12T14:03:25.869Z,10.1
2022-10-12T14:04:38.397Z,9.4
2022-10-12T14:05:43.155Z,10.1
2022-10-12T14:06:47.797Z,8.6
2022-10-12T14:07:57.546Z,10.5
2022-10-12T14:09:07.354Z,15.8
2022-10-12T14:10:12.077Z,15.8
2022-10-12T14:11:19.581Z,12
2022-10-12T14:12:25.535Z,17.8
2022-10-12T14:13:28.812Z,21
2022-10-12T14:14:33.637Z,22.5
2022-10-12T14:15:38.229Z,28.4
2022-10-12T14:16:43.114Z,24.6
2022-10-12T14:17:47.834Z,18.8
2022-10-12T14:18:52.413Z,17
2022-10-12T14:19:56.925Z,13.8
2022-10-12T14:21:11.673Z,14.2
2022-10-12T14:22:16.242Z,13.4
2022-10-12T14:23:23.913Z,15.8
2022-10-12T14:24:28.749Z,19.5
2022-10-12T14:25:33.326Z,22.4
2022-10-12T14:26:37.902Z,17
2022-10-12T14:27:42.294Z,15.3
2022-10-12T14:28:47.030Z,15.5
2022-10-12T14:29:52.133Z,11.5
2022-10-12T14:30:56.903Z,12.8
2022-10-12T14:32:01.261Z,12.9
2022-10-12T14:33:08.201Z,10.5
2022-10-12T14:34:15.242Z,10
2022-10-12T14:35:22.476Z,8.6
2022-10-12T14:36:26.673Z,11.4
2022-10-12T14:37:31.629Z,10
2022-10-12T14:38:36.197Z,12.2
2022-10-12T14:39:42.293Z,11.5
2022-10-12T14:40:46.665Z,9.7
2022-10-12T14:41:51.344Z,10.6
2022-10-12T14:42:55.697Z,9.4
2022-10-12T14:44:05.287Z,10.4
2022-10-12T14:45:10.103Z,9
2022-10-12T14:46:17.781Z,10.6
2022-10-12T14:47:22.187Z,10.7
2022-10-12T14:48:29.818Z,9.9
2022-10-12T14:49:34.184Z,11.1
2022-10-12T14:50:41.617Z,12.7
2022-10-12T14:51:46.848Z,10.8
2022-10-12T14:52:51.584Z,10.4
2022-10-12T14:53:56.303Z,11.2
2022-10-12T14:55:03.654Z,10.8
2022-10-12T14:56:08.418Z,9.3
2022-10-12T14:57:13.266Z,9.4
2022-10-12T14:58:17.453Z,10.1
2022-10-12T14:59:21.964Z,11.2
2022-10-12T15:00:26.116Z,8.6
2022-10-12T15:01:30.950Z,10.7
2022-10-12T15:02:35.256Z,12.5
2022-10-12T15:03:40.088Z,13.8
2022-10-12T15:04:44.500Z,13.8
2022-10-12T15:05:49.177Z,13.6
2022-10-12T15:06:53.860Z,16.8
2022-10-12T15:07:58.176Z,12.6
2022-10-12T15:09:03.103Z,17.1
2022-10-12T15:10:07.302Z,14.8
2022-10-12T15:11:11.636Z,13
2022-10-12T15:12:16.301Z,13.4
2022-10-12T15:13:21.132Z,15
2022-10-12T15:14:25.569Z,15
2022-10-12T15:15:29.892Z,13.5
2022-10-12T15:16:37.087Z,14.2
2022-10-12T15:17:41.716Z,14.4
2022-10-12T15:18:47.629Z,13.2
2022-10-12T15:19:52.520Z,14.2